createdAt,value
2023-02-02T00:01:53.895Z,3.80
2023-02-02T00:04:33.524Z,3.30
2023-02-02T00:07:02.826Z,3.00
2023-02-02T00:09:32.059Z,4.45
2023-02-02T00:12:01.269Z,4.55
2023-02-02T00:14:28.525Z,3.10
2023-02-02T00:16:58.017Z,3.05
2023-02-02T00:19:33.510Z,4.43
2023-02-02T00:22:00.425Z,3.30
2023-02-02T00:24:27.507Z,3.33
2023-02-02T00:26:59.800Z,3.13
2023-02-02T00:29:30.031Z,4.45
2023-02-02T00:31:57.322Z,3.15
2023-02-02T00:34:24.657Z,3.33
2023-02-02T00:36:52.059Z,3.78
2023-02-02T00:39:23.149Z,3.30
2023-02-02T00:41:50.136Z,3.92
2023-02-02T00:44:35.586Z,3.13
2023-02-02T00:47:03.859Z,3.20
2023-02-02T00:49:31.041Z,3.50
2023-02-02T00:51:58.219Z,2.63
2023-02-02T00:54:25.374Z,3.25
2023-02-02T00:56:56.400Z,2.80
2023-02-02T00:59:23.798Z,4.25
2023-02-02T01:01:51.449Z,3.20
2023-02-02T01:04:18.541Z,2.30
2023-02-02T01:06:47.874Z,2.97
2023-02-02T01:09:14.933Z,2.58
2023-02-02T01:11:42.287Z,3.33
2023-02-02T01:14:09.292Z,3.13
2023-02-02T01:16:36.410Z,2.67
2023-02-02T01:19:03.999Z,2.60
2023-02-02T01:21:31.029Z,2.97
2023-02-02T01:23:58.117Z,2.90
2023-02-02T01:26:25.133Z,2.30
2023-02-02T01:28:52.143Z,2.80
2023-02-02T01:31:21.328Z,2.47
2023-02-02T01:33:50.153Z,2.40
2023-02-02T01:36:21.558Z,3.25
2023-02-02T01:38:49.761Z,2.53
2023-02-02T01:41:22.120Z,2.38
2023-02-02T01:44:45.665Z,2.40
2023-02-02T01:47:13.375Z,2.47
2023-02-02T01:49:41.412Z,2.85
2023-02-02T01:52:10.660Z,3.80
2023-02-02T01:54:58.399Z,3.20
2023-02-02T01:57:36.352Z,2.80
2023-02-02T02:00:09.028Z,3.17
2023-02-02T02:02:45.948Z,3.10
2023-02-02T02:05:19.852Z,3.88
2023-02-02T02:07:50.477Z,3.40
2023-02-02T02:10:18.775Z,3.63
2023-02-02T02:12:48.643Z,3.25
2023-02-02T02:15:34.561Z,3.83
2023-02-02T02:18:35.275Z,3.67
2023-02-02T02:22:15.831Z,2.97
2023-02-02T02:25:51.852Z,3.42
2023-02-02T02:29:03.122Z,3.30
2023-02-02T02:31:56.035Z,3.53
2023-02-02T02:34:44.749Z,3.50
2023-02-02T02:37:38.891Z,3.60
2023-02-02T02:40:34.626Z,3.67
2023-02-02T02:43:15.597Z,3.72
2023-02-02T02:45:44.809Z,2.63
2023-02-02T02:48:13.642Z,2.72
2023-02-02T02:50:40.768Z,2.05
2023-02-02T02:53:16.547Z,2.58
2023-02-02T02:56:25.102Z,2.83
2023-02-02T02:59:05.307Z,2.90
2023-02-02T03:02:08.746Z,2.67
2023-02-02T03:05:08.992Z,2.75
2023-02-02T03:07:42.935Z,2.53
2023-02-02T03:10:13.787Z,2.22
2023-02-02T03:12:49.350Z,2.63
2023-02-02T03:15:17.977Z,2.70
2023-02-02T03:17:52.503Z,2.78
2023-02-02T03:20:22.853Z,3.95
2023-02-02T03:22:51.302Z,2.50
2023-02-02T03:25:18.809Z,3.00
2023-02-02T03:27:45.831Z,3.35
2023-02-02T03:30:14.167Z,2.83
2023-02-02T03:32:41.730Z,3.80
2023-02-02T03:35:11.172Z,4.22
2023-02-02T03:37:38.513Z,3.55
2023-02-02T03:40:07.108Z,3.95
2023-02-02T03:42:34.139Z,4.18
2023-02-02T03:45:01.152Z,4.75
2023-02-02T03:47:29.929Z,3.33
2023-02-02T03:49:57.510Z,3.67
2023-02-02T03:52:26.683Z,3.25
2023-02-02T03:54:53.911Z,4.07
2023-02-02T03:57:20.814Z,4.13
2023-02-02T03:59:47.781Z,4.45
2023-02-02T04:02:14.818Z,3.88
2023-02-02T04:04:41.736Z,3.40
2023-02-02T04:07:08.644Z,3.90
2023-02-02T04:09:35.632Z,4.55
2023-02-02T04:12:02.590Z,3.88
2023-02-02T04:14:29.445Z,4.00
2023-02-02T04:16:56.329Z,5.13
2023-02-02T04:19:25.997Z,3.65
2023-02-02T04:21:53.597Z,3.90
2023-02-02T04:24:20.528Z,3.80
2023-02-02T04:26:47.728Z,5.43
2023-02-02T04:29:14.940Z,4.40
2023-02-02T04:31:42.543Z,3.65
2023-02-02T04:34:09.552Z,3.88
2023-02-02T04:36:36.410Z,3.05
2023-02-02T04:39:03.929Z,3.80
2023-02-02T04:41:32.312Z,3.58
2023-02-02T04:43:59.192Z,4.65
2023-02-02T04:46:26.609Z,4.15
2023-02-02T04:48:53.548Z,4.13
2023-02-02T04:51:20.421Z,3.97
2023-02-02T04:53:47.372Z,4.30
2023-02-02T04:56:18.917Z,3.63
2023-02-02T04:58:46.402Z,3.95
2023-02-02T05:01:20.196Z,3.17
2023-02-02T05:03:48.527Z,2.92
2023-02-02T05:06:16.401Z,3.70
2023-02-02T05:08:44.120Z,3.70
2023-02-02T05:11:18.510Z,3.60
2023-02-02T05:16:17.910Z,5.03
2023-02-02T05:18:59.469Z,4.60
2023-02-02T05:21:26.942Z,4.78
2023-02-02T05:23:53.911Z,4.65
2023-02-02T05:26:26.823Z,3.83
2023-02-02T05:28:54.171Z,4.53
2023-02-02T05:31:21.245Z,5.05
2023-02-02T05:33:48.329Z,4.57
2023-02-02T05:36:15.299Z,4.80
2023-02-02T05:38:42.263Z,4.70
2023-02-02T05:41:09.268Z,4.70
2023-02-02T05:43:36.211Z,4.57
2023-02-02T05:46:04.061Z,4.78
2023-02-02T05:48:31.101Z,4.88
2023-02-02T05:51:11.374Z,5.65
2023-02-02T05:53:38.384Z,5.82
2023-02-02T05:56:05.847Z,4.70
2023-02-02T05:58:32.943Z,5.10
2023-02-02T06:01:00.256Z,7.38
2023-02-02T06:03:27.631Z,7.13
2023-02-02T06:05:54.686Z,9.23
2023-02-02T06:08:21.771Z,7.55
2023-02-02T06:10:49.394Z,9.77
2023-02-02T06:13:16.287Z,7.68
2023-02-02T06:15:43.448Z,7.18
2023-02-02T06:18:11.052Z,7.97
2023-02-02T06:20:38.787Z,7.13
2023-02-02T06:23:06.854Z,9.13
2023-02-02T06:25:34.544Z,9.50
2023-02-02T06:28:01.721Z,10.50
2023-02-02T06:30:29.040Z,12.05
2023-02-02T06:32:56.092Z,13.98
2023-02-02T06:35:23.368Z,16.73
2023-02-02T06:37:50.483Z,17.70
2023-02-02T06:40:20.881Z,17.48
2023-02-02T06:42:47.842Z,16.88
2023-02-02T06:45:15.086Z,15.73
2023-02-02T06:47:42.664Z,16.63
2023-02-02T06:50:10.642Z,18.63
2023-02-02T06:52:37.575Z,19.15
2023-02-02T06:55:05.119Z,19.15
2023-02-02T06:57:32.352Z,18.15
2023-02-02T06:59:59.701Z,16.77
2023-02-02T07:02:26.996Z,19.50
2023-02-02T07:04:54.136Z,17.00
2023-02-02T07:07:21.218Z,18.75
2023-02-02T07:09:48.160Z,16.02
2023-02-02T07:12:27.558Z,19.10
2023-02-02T07:14:54.684Z,16.77
2023-02-02T07:17:23.745Z,17.58
2023-02-02T07:19:51.152Z,16.40
2023-02-02T07:22:18.409Z,17.40
2023-02-02T07:24:45.295Z,17.85
2023-02-02T07:27:12.347Z,15.77
2023-02-02T07:29:39.439Z,16.63
2023-02-02T07:32:06.557Z,17.00
2023-02-02T07:34:33.885Z,17.10
2023-02-02T07:37:00.944Z,17.30
2023-02-02T07:39:27.863Z,17.35
2023-02-02T07:41:55.157Z,17.23
2023-02-02T07:44:30.908Z,18.65
2023-02-02T07:46:58.417Z,17.55
2023-02-02T07:49:25.717Z,17.95
2023-02-02T07:51:53.394Z,17.60
2023-02-02T07:54:21.519Z,18.08
2023-02-02T07:56:48.833Z,16.42
2023-02-02T07:59:16.480Z,17.90
2023-02-02T08:01:43.684Z,19.55
2023-02-02T08:04:10.734Z,17.55
2023-02-02T08:06:40.019Z,17.63
2023-02-02T08:09:09.235Z,17.10
2023-02-02T08:11:39.964Z,18.42
2023-02-02T08:14:07.961Z,15.63
2023-02-02T08:16:36.155Z,17.58
2023-02-02T08:19:03.703Z,17.95
2023-02-02T08:21:34.882Z,18.20
2023-02-02T08:24:03.250Z,17.23
2023-02-02T08:26:32.097Z,16.80
2023-02-02T08:29:03.694Z,17.90
2023-02-02T08:31:38.027Z,15.75
2023-02-02T08:34:06.138Z,16.80
2023-02-02T08:36:35.589Z,16.42
2023-02-02T08:39:07.492Z,15.32
2023-02-02T08:41:35.066Z,16.05
2023-02-02T08:44:05.248Z,15.77
2023-02-02T08:46:33.134Z,16.50
2023-02-02T08:49:00.252Z,16.73
2023-02-02T08:51:27.743Z,15.23
2023-02-02T08:53:55.119Z,15.75
2023-02-02T08:56:23.641Z,15.35
2023-02-02T08:58:56.236Z,14.82
2023-02-02T09:01:27.090Z,15.27
2023-02-02T09:04:00.327Z,13.77
2023-02-02T09:06:39.303Z,14.57
2023-02-02T09:09:11.156Z,15.50
2023-02-02T09:11:40.727Z,15.00
2023-02-02T09:14:09.249Z,15.27
2023-02-02T09:16:36.681Z,14.75
2023-02-02T09:19:05.239Z,14.48
2023-02-02T09:21:36.977Z,15.05
2023-02-02T09:24:09.941Z,15.00
2023-02-02T09:26:38.794Z,12.40
2023-02-02T09:29:08.489Z,11.68
2023-02-02T09:31:37.639Z,12.02
2023-02-02T09:34:08.767Z,11.10
2023-02-02T09:36:38.035Z,11.45
2023-02-02T09:39:06.511Z,12.60
2023-02-02T09:41:39.795Z,11.30
2023-02-02T09:44:30.230Z,14.80
2023-02-02T09:47:17.647Z,11.52
2023-02-02T09:50:25.942Z,9.35
2023-02-02T09:53:05.954Z,7.72
2023-02-02T09:55:38.924Z,8.18
2023-02-02T09:58:30.385Z,7.07
2023-02-02T10:01:15.824Z,6.25
2023-02-02T10:04:13.647Z,8.10
2023-02-02T10:06:45.097Z,8.63
2023-02-02T10:09:40.544Z,7.50
2023-02-02T10:12:40.911Z,8.40
2023-02-02T10:15:24.391Z,6.65
2023-02-02T10:18:00.805Z,5.85
2023-02-02T10:21:28.844Z,6.80
2023-02-02T10:23:58.442Z,4.65
2023-02-02T10:26:46.122Z,5.95
2023-02-02T10:29:28.070Z,4.88
2023-02-02T10:32:22.640Z,4.95
2023-02-02T10:35:25.233Z,5.13
2023-02-02T10:38:42.724Z,4.53
2023-02-02T10:41:32.341Z,5.10
2023-02-02T10:44:18.055Z,5.05
2023-02-02T10:46:54.054Z,4.47
2023-02-02T10:49:33.806Z,4.57
2023-02-02T10:52:17.645Z,4.90
2023-02-02T10:58:12.259Z,4.90
2023-02-02T11:00:48.616Z,6.05
2023-02-02T11:03:20.204Z,5.85
2023-02-02T11:06:06.010Z,5.72
2023-02-02T11:08:45.463Z,4.85
2023-02-02T11:11:33.273Z,5.10
2023-02-02T11:14:09.449Z,5.93
2023-02-02T11:16:45.195Z,5.07
2023-02-02T11:19:18.082Z,5.45
2023-02-02T11:21:54.930Z,5.38
2023-02-02T11:24:28.482Z,4.78
2023-02-02T11:27:07.399Z,5.50
2023-02-02T11:29:40.513Z,5.63
2023-02-02T11:32:27.466Z,5.00
2023-02-02T11:35:17.839Z,3.83
2023-02-02T11:38:13.869Z,4.43
2023-02-02T11:40:53.053Z,5.30
2023-02-02T11:43:33.452Z,4.68
2023-02-02T11:46:08.152Z,4.20
2023-02-02T11:48:39.374Z,4.80
2023-02-02T11:51:08.385Z,4.35
2023-02-02T11:53:41.494Z,4.07
2023-02-02T11:56:29.411Z,3.63
2023-02-02T11:59:03.789Z,3.35
2023-02-02T12:01:39.857Z,2.55
2023-02-02T12:04:25.857Z,1.80
2023-02-02T12:06:52.983Z,2.70
2023-02-02T12:09:24.069Z,2.42
2023-02-02T12:12:03.513Z,3.22
2023-02-02T12:14:45.962Z,1.65
2023-02-02T12:17:41.829Z,2.47
2023-02-02T12:20:29.768Z,2.38
2023-02-02T12:23:14.740Z,2.45
2023-02-02T12:26:00.569Z,2.00
2023-02-02T12:28:58.688Z,2.08
2023-02-02T12:31:48.942Z,1.67
2023-02-02T12:35:00.703Z,1.10
2023-02-02T12:38:06.232Z,1.60
2023-02-02T12:40:55.823Z,2.95
2023-02-02T12:43:46.429Z,1.73
2023-02-02T12:46:22.569Z,2.03
2023-02-02T12:48:58.462Z,2.15
2023-02-02T12:52:09.961Z,1.50
2023-02-02T12:55:02.560Z,1.40
2023-02-02T12:57:59.704Z,1.20
2023-02-02T13:00:42.755Z,1.10
2023-02-02T13:03:28.253Z,0.65
2023-02-02T13:06:21.468Z,0.68
2023-02-02T13:08:57.970Z,0.60
2023-02-02T13:11:44.861Z,0.77
2023-02-02T13:14:17.022Z,0.80
2023-02-02T13:16:50.543Z,0.75
2023-02-02T13:19:33.382Z,1.27
2023-02-02T13:22:04.970Z,1.45
2023-02-02T13:24:37.371Z,1.60
2023-02-02T13:27:07.628Z,1.77
2023-02-02T13:29:48.212Z,1.10
2023-02-02T13:32:29.297Z,0.95
2023-02-02T13:35:18.669Z,1.23
2023-02-02T13:37:59.176Z,1.40
2023-02-02T13:40:43.935Z,0.90
2023-02-02T13:43:20.061Z,0.82
2023-02-02T13:46:12.319Z,0.57
2023-02-02T13:49:13.407Z,0.70
2023-02-02T13:52:15.025Z,0.85
2023-02-02T13:55:08.756Z,0.75
2023-02-02T13:57:58.597Z,0.50
2023-02-02T14:00:33.616Z,1.02
2023-02-02T14:03:06.231Z,0.63
2023-02-02T14:05:41.593Z,0.60
2023-02-02T14:08:21.840Z,0.60
2023-02-02T14:10:51.852Z,0.73
2023-02-02T14:13:44.488Z,1.40
2023-02-02T14:16:33.037Z,0.63
2023-02-02T14:19:12.878Z,0.20
2023-02-02T14:21:39.786Z,1.00
2023-02-02T14:24:26.223Z,0.90
2023-02-02T14:26:59.723Z,1.55
2023-02-02T14:29:31.486Z,1.02
2023-02-02T14:32:02.798Z,0.90
2023-02-02T14:34:34.521Z,1.63
2023-02-02T14:37:29.876Z,1.20
2023-02-02T14:40:12.930Z,1.10
2023-02-02T14:43:39.471Z,1.40
2023-02-02T14:46:15.901Z,1.23
2023-02-02T14:49:03.062Z,1.55
2023-02-02T14:51:33.421Z,1.13
2023-02-02T14:54:06.996Z,1.42
2023-02-02T14:56:52.354Z,1.02
2023-02-02T14:59:28.956Z,1.35
2023-02-02T15:02:15.752Z,1.40
2023-02-02T15:04:47.941Z,1.65
2023-02-02T15:07:52.127Z,1.98
2023-02-02T15:11:01.170Z,4.38
2023-02-02T15:13:37.653Z,2.72
2023-02-02T15:16:18.972Z,3.63
2023-02-02T15:18:58.233Z,2.80
2023-02-02T15:21:28.107Z,2.15
2023-02-02T15:23:57.213Z,1.58
2023-02-02T15:26:37.902Z,3.33
2023-02-02T15:29:19.710Z,1.80
2023-02-02T15:31:53.565Z,2.00
2023-02-02T15:37:10.746Z,1.70
2023-02-02T15:39:43.459Z,1.75
2023-02-02T15:42:37.949Z,1.67
2023-02-02T15:45:05.799Z,1.55
2023-02-02T15:47:40.612Z,2.70
2023-02-02T15:50:20.573Z,2.05
2023-02-02T15:52:50.709Z,2.03
2023-02-02T15:55:33.668Z,1.60
2023-02-02T15:58:02.939Z,1.88
2023-02-02T16:00:35.237Z,1.85
2023-02-02T16:03:15.340Z,1.50
2023-02-02T16:05:48.142Z,1.40
2023-02-02T16:08:26.189Z,1.27
2023-02-02T16:11:05.386Z,1.65
2023-02-02T16:13:33.649Z,0.77
2023-02-02T16:16:20.128Z,1.95
2023-02-02T16:18:47.734Z,1.00
2023-02-02T16:21:24.161Z,2.20
2023-02-02T16:23:55.976Z,1.80
2023-02-02T16:26:29.069Z,2.05
2023-02-02T16:28:57.111Z,2.30
2023-02-02T16:31:25.825Z,1.85
2023-02-02T16:33:52.916Z,1.52
2023-02-02T16:36:26.233Z,2.10
2023-02-02T16:38:55.318Z,1.75
2023-02-02T16:41:35.011Z,1.92
2023-02-02T16:44:36.328Z,3.05
2023-02-02T16:47:07.339Z,2.15
2023-02-02T16:49:35.292Z,1.45
2023-02-02T16:52:21.849Z,2.33
2023-02-02T16:54:55.569Z,3.13
2023-02-02T16:57:34.370Z,3.20
2023-02-02T17:00:09.310Z,3.35
2023-02-02T17:02:41.036Z,2.97
2023-02-02T17:05:21.768Z,3.00
2023-02-02T17:08:05.656Z,2.35
2023-02-02T17:10:43.793Z,2.70
2023-02-02T17:13:36.658Z,2.05
2023-02-02T17:16:04.308Z,3.50
2023-02-02T17:18:31.646Z,1.77
2023-02-02T17:21:07.357Z,1.20
2023-02-02T17:23:36.933Z,1.55
2023-02-02T17:26:07.590Z,1.38
2023-02-02T17:28:38.201Z,0.98
2023-02-02T17:31:11.960Z,1.35
2023-02-02T17:33:39.898Z,1.42
2023-02-02T17:36:07.620Z,2.13
2023-02-02T17:38:34.719Z,1.58
2023-02-02T17:41:03.458Z,1.80
2023-02-02T17:43:32.701Z,2.15
2023-02-02T17:46:00.273Z,1.90
2023-02-02T17:48:27.776Z,1.70
2023-02-02T17:50:55.136Z,2.72
2023-02-02T17:53:22.967Z,4.15
2023-02-02T17:55:51.426Z,3.60
2023-02-02T17:58:19.095Z,4.55
2023-02-02T18:00:53.529Z,3.58
2023-02-02T18:05:53.877Z,2.53
2023-02-02T18:08:20.925Z,2.80
2023-02-02T18:10:47.912Z,2.50
2023-02-02T18:13:17.360Z,2.55
2023-02-02T18:15:44.423Z,2.40
2023-02-02T18:18:12.578Z,3.13
2023-02-02T18:20:47.090Z,2.00
2023-02-02T18:23:15.811Z,3.53
2023-02-02T18:25:43.718Z,3.65
2023-02-02T18:28:11.110Z,6.07
2023-02-02T18:30:40.393Z,3.55
2023-02-02T18:33:11.809Z,4.05
2023-02-02T18:35:47.419Z,5.18
2023-02-02T18:38:14.880Z,6.55
2023-02-02T18:40:42.086Z,4.32
2023-02-02T18:43:09.517Z,4.43
2023-02-02T18:45:36.833Z,4.30
2023-02-02T18:48:04.433Z,4.97
2023-02-02T18:50:31.425Z,4.07
2023-02-02T18:52:58.764Z,4.43
2023-02-02T18:55:26.949Z,4.63
2023-02-02T18:57:54.293Z,5.80
2023-02-02T19:00:22.143Z,6.25
2023-02-02T19:02:49.448Z,5.32
2023-02-02T19:05:35.641Z,6.90
2023-02-02T19:08:04.123Z,5.80
2023-02-02T19:10:31.644Z,4.15
2023-02-02T19:13:19.193Z,4.25
2023-02-02T19:15:49.726Z,4.60
2023-02-02T19:18:23.377Z,3.83
2023-02-02T19:20:52.531Z,4.35
2023-02-02T19:23:23.565Z,3.92
2023-02-02T19:25:54.247Z,4.45
2023-02-02T19:28:31.470Z,5.28
2023-02-02T19:31:01.858Z,5.22
2023-02-02T19:33:39.961Z,4.63
2023-02-02T19:36:21.362Z,4.13
2023-02-02T19:38:52.888Z,4.45
2023-02-02T19:41:24.064Z,4.30
2023-02-02T19:44:11.617Z,4.68
2023-02-02T19:46:44.509Z,4.47
2023-02-02T19:49:16.945Z,4.00
2023-02-02T19:51:53.729Z,4.80
2023-02-02T19:54:32.841Z,4.65
2023-02-02T19:57:13.408Z,5.00
2023-02-02T19:59:43.247Z,6.15
2023-02-02T20:02:44.019Z,12.02
2023-02-02T20:05:10.953Z,9.43
2023-02-02T20:07:41.490Z,11.80
2023-02-02T20:10:21.483Z,7.63
2023-02-02T20:12:50.072Z,9.18
2023-02-02T20:15:36.701Z,9.05
2023-02-02T20:18:18.962Z,6.32
2023-02-02T20:20:58.449Z,11.70
2023-02-02T20:23:45.837Z,7.38
2023-02-02T20:26:36.688Z,6.32
2023-02-02T20:29:39.048Z,6.90
2023-02-02T20:32:19.430Z,6.35
2023-02-02T20:34:46.751Z,3.88
2023-02-02T20:37:13.681Z,4.05
2023-02-02T20:39:42.102Z,4.07
2023-02-02T20:42:09.044Z,6.47
2023-02-02T20:44:36.311Z,4.63
2023-02-02T20:47:03.646Z,6.32
2023-02-02T20:49:31.836Z,9.98
2023-02-02T20:52:02.229Z,5.20
2023-02-02T20:54:29.798Z,5.20
2023-02-02T20:56:56.726Z,4.15
2023-02-02T20:59:23.974Z,3.85
2023-02-02T21:01:51.272Z,4.60
2023-02-02T21:04:19.256Z,4.60
2023-02-02T21:06:48.123Z,3.40
2023-02-02T21:09:16.712Z,2.72
2023-02-02T21:11:43.929Z,5.53
2023-02-02T21:14:10.987Z,5.65
2023-02-02T21:16:38.068Z,3.40
2023-02-02T21:19:05.853Z,3.63
2023-02-02T21:21:32.931Z,3.95
2023-02-02T21:24:00.891Z,2.80
2023-02-02T21:26:30.551Z,3.58
2023-02-02T21:28:58.876Z,3.10
2023-02-02T21:31:26.734Z,4.07
2023-02-02T21:33:54.116Z,3.75
2023-02-02T21:36:34.650Z,2.92
2023-02-02T21:39:33.429Z,3.58
2023-02-02T21:42:09.267Z,3.50
2023-02-02T21:44:52.522Z,4.13
2023-02-02T21:47:33.278Z,6.05
2023-02-02T21:50:28.088Z,4.75
2023-02-02T21:53:18.163Z,5.20
2023-02-02T21:55:59.879Z,4.22
2023-02-02T21:58:35.040Z,3.45
2023-02-02T22:01:24.200Z,4.68
2023-02-02T22:03:51.585Z,4.30
2023-02-02T22:06:42.255Z,4.53
2023-02-02T22:09:12.126Z,3.53
2023-02-02T22:11:47.269Z,3.67
2023-02-02T22:14:19.025Z,3.28
2023-02-02T22:16:50.317Z,3.63
2023-02-02T22:19:38.735Z,3.40
2023-02-02T22:22:08.592Z,4.15
2023-02-02T22:24:36.804Z,3.70
2023-02-02T22:27:03.830Z,4.15
2023-02-02T22:29:35.356Z,5.47
2023-02-02T22:32:02.409Z,4.88
2023-02-02T22:34:29.447Z,5.55
2023-02-02T22:36:56.387Z,6.10
2023-02-02T22:39:23.311Z,5.88
2023-02-02T22:41:50.294Z,6.43
2023-02-02T22:44:17.165Z,7.15
2023-02-02T22:46:44.189Z,8.43
2023-02-02T22:49:11.242Z,8.80
2023-02-02T22:51:38.184Z,8.57
2023-02-02T22:54:05.305Z,9.23
2023-02-02T22:56:32.316Z,10.88
2023-02-02T22:59:01.409Z,8.98
2023-02-02T23:01:28.520Z,7.47
2023-02-02T23:03:55.927Z,7.40
2023-02-02T23:06:23.087Z,7.30
2023-02-02T23:08:50.359Z,8.57
2023-02-02T23:11:17.378Z,8.98
2023-02-02T23:13:44.287Z,7.90
2023-02-02T23:16:11.353Z,7.50
2023-02-02T23:18:38.378Z,6.80
2023-02-02T23:21:05.706Z,5.90
2023-02-02T23:23:32.648Z,6.93
2023-02-02T23:25:59.541Z,4.68
2023-02-02T23:28:26.433Z,5.70
2023-02-02T23:31:12.217Z,4.85
2023-02-02T23:33:39.356Z,5.05
2023-02-02T23:36:06.978Z,5.88
2023-02-02T23:38:33.948Z,4.32
2023-02-02T23:41:00.874Z,4.85
2023-02-02T23:43:28.412Z,4.82
2023-02-02T23:45:55.463Z,6.30
2023-02-02T23:48:22.517Z,4.07
2023-02-02T23:50:49.475Z,4.32
2023-02-02T23:53:17.215Z,5.15
2023-02-02T23:55:48.120Z,5.20
2023-02-02T23:58:15.983Z,5.63
